Aeroporto :
LOGIN :

Iscrizione | Disclaimer

   EN    FR    IT 

 










Sommario :    VFR   VFR Marginale   IFR   IFR Intensivo   IFR Molto Intensivo
Visibilità : 
Base nubi : 
>= 8 km
>= 3000ft
5 / 8 km
1000 / 3000 ft
1500m / 5 km
500 / 1000 ft
800 / 1500m
200 / 500 ft
< 800m
< 200 ft
Simboli :   Temporali  Nebbia  Neve Forte  Precipitazioni Forti  Vento > 20 kt
SIGMETs :   Varie  Temporali  Ghiacco  Turbolenza  Onda orograficha  Ceneri Vulcaniche







- Altitudine del aeroporto : 2059 ft
- Codice IATA : KZI


LGKZ - Filippos

ULTIMO METAR :
  • 190220Z AUTO VRB03KT //// // ////// 15/14 Q1016 RE//

METARs OBSOLETI :
  • 190150Z AUTO VRB03KT //// // ////// 15/14 Q1016 RE//
  • 190120Z AUTO 34004KT //// // ////// 16/15 Q1016 RE//
  • 190050Z AUTO 33004KT 310V010 //// // ////// 16/15 Q1016 RE//
  • 190020Z AUTO 32004KT 300V360 //// // ////// 16/15 Q1016 RE//
  • 182350Z AUTO 36004KT 280V010 //// // ////// 16/15 Q1017 RE//

TAF N/A
Nessun NOTAM noto per questo aeroporto.



MetMap, La meteo Aeronautica in un colpo d'occhio ! - Copyright ORBIFLY Dicembre 2007 - Disclaimer

ORBIFLY MET'MAP TEAM :

Programmazione e sviluppo : Alexandra Zaïnal
Concezione e sviluppo : Baudouin d'Aumeries
Co-Programmazione e sviluppo : Marc-Olivier Méhu
Supporto tecnico e logistico : Manuel Goepfert
Aiuto per la traduzione : Arnaldo La Scala

Contatto : metmap@orbifly.com




FONTI E CREDITI :

   NOAA